Weather History for Thermopolis, WY

Change the Weather History Date:

Friday, November 2, 2012

  Actual Average (KWRL) Record (KWRL)
Temperature  
Mean Temperature 40 °F 38 °F  
Max Temperature 44 °F 53 °F 72 °F (1965)
Min Temperature 35 °F 24 °F -12 °F (1991)
Degree Days  
Heating Degree Days 26 27  
Month to date heating degree days 53  
Since 1 July heating degree days 915  
Cooling Degree Days 0 0  
Month to date cooling degree days 0  
Year to date cooling degree days 535  
Moisture  
Dew Point 21 °F    
Average Humidity 48    
Maximum Humidity 65    
Minimum Humidity 29    
Precipitation  
Precipitation 0.00 in 0.02 in 0.64 in (1987)
Month to date precipitation 0.03  
Year to date precipitation 7.02  
Sea Level Pressure  
Sea Level Pressure 30.18 in    
Wind  
Wind Speed 13 mph ()    
Max Wind Speed 38 mph    
Max Gust Speed 44 mph    
Visibility 10.0 miles    
Events      
T = Trace of Precipitation, MM = Missing Value Source: Averaged Metar Reports

Daily Weather History Graph

Daily Weather History Graph

Search for Another Location

Airport:

Trip Planner

Search our weather history database for the weather conditions in past years. The results will help you decide how hot, cold, wet, or windy it might be!

Date:

Astronomy

Nov. 02, 2012 Rise Set
Actual Time 7:50 AM MDT 6:02 PM MDT
Civil Twilight 7:20 AM MDT 6:31 PM MDT
Nautical Twilight 6:46 AM MDT 7:05 PM MDT
Astronomical Twilight 6:13 AM MDT 7:39 PM MDT
Moon 8:48 PM MDT (11/2) 11:16 AM MDT (11/2)
Length of Visible Light 11h 11m
Length of Day
10h 11m
Waning Gibbous, 87% of the Moon is Illuminated
Nov 2
Waning Gibbous
Nov 6
Last Quarter
Nov 13
New
Nov 20
First Quarter
Nov 28
Full

Hourly Weather History & Observations

Time (MDT) Temp. Windchill Dew Point Humidity Pressure Visibility Wind Dir Wind Speed Gust Speed Precip Events Conditions
12:15 AM 44.6 °F 35.1 °F 19.4 °F 37% 30.08 in 10.0 mi WSW 27.6 mph 34.5 mph N/A   Mostly Cloudy
12:35 AM 44.6 °F 34.7 °F 17.6 °F 34% 30.08 in 10.0 mi WSW 29.9 mph 35.7 mph N/A   Overcast
1:15 AM 42.8 °F 31.1 °F 14.0 °F 31% 30.08 in 10.0 mi WSW 38.0 mph 43.7 mph N/A   Scattered Clouds
1:35 AM 42.8 °F 31.9 °F 14.0 °F 31% 30.08 in 10.0 mi WSW 32.2 mph 39.1 mph N/A   Clear
1:55 AM 42.8 °F 32.9 °F 12.2 °F 29% 30.09 in 10.0 mi SW 26.5 mph 34.5 mph N/A   Clear
2:15 AM 41.0 °F 31.9 °F 15.8 °F 36% 30.10 in 10.0 mi WSW 19.6 mph 26.5 mph N/A   Clear
2:35 AM 41.0 °F 33.1 °F 17.6 °F 39% 30.10 in 10.0 mi West 15.0 mph 27.6 mph N/A   Clear
2:55 AM 37.4 °F 28.5 °F 19.4 °F 48% 30.11 in 10.0 mi West 15.0 mph - N/A   Clear
3:15 AM 37.4 °F 28.2 °F 19.4 °F 48% 30.11 in 10.0 mi West 16.1 mph - N/A   Clear
3:35 AM 37.4 °F 29.3 °F 19.4 °F 48% 30.11 in 10.0 mi West 12.7 mph - N/A   Clear
3:55 AM 37.4 °F 29.3 °F 19.4 °F 48% 30.11 in 10.0 mi WSW 12.7 mph - N/A   Clear
4:15 AM 37.4 °F 32.1 °F 17.6 °F 45% 30.12 in 10.0 mi West 6.9 mph - N/A   Clear
4:35 AM 37.4 °F 30.3 °F 17.6 °F 45% 30.12 in 10.0 mi WSW 10.4 mph - N/A   Clear
4:55 AM 39.2 °F 35.0 °F 15.8 °F 39% 30.13 in 10.0 mi West 5.8 mph - N/A   Clear
5:15 AM 37.4 °F 30.3 °F 15.8 °F 41% 30.13 in 10.0 mi WSW 10.4 mph - N/A   Clear
5:35 AM 37.4 °F 31.4 °F 17.6 °F 45% 30.13 in 10.0 mi West 8.1 mph - N/A   Clear
6:15 AM 37.4 °F 32.1 °F 17.6 °F 45% 30.14 in 10.0 mi NW 6.9 mph - N/A   Clear
6:35 AM 35.6 °F 29.2 °F 19.4 °F 52% 30.14 in 10.0 mi NNW 8.1 mph - N/A   Clear
6:55 AM 35.6 °F 29.2 °F 23.0 °F 60% 30.14 in 10.0 mi North 8.1 mph - N/A   Clear
7:15 AM 35.6 °F 28.6 °F 23.0 °F 60% 30.15 in 10.0 mi NNE 9.2 mph - N/A   Clear
7:35 AM 37.4 °F 34.9 °F 23.0 °F 56% 30.15 in 10.0 mi NE 3.5 mph - N/A   Clear
8:15 AM 35.6 °F 29.9 °F 23.0 °F 60% 30.16 in 10.0 mi North 6.9 mph - N/A   Clear
8:35 AM 35.6 °F 30.7 °F 24.8 °F 65% 30.17 in 10.0 mi NNE 5.8 mph - N/A   Clear
8:55 AM 37.4 °F 33.8 °F 24.8 °F 60% 30.18 in 10.0 mi NE 4.6 mph - N/A   Clear
9:15 AM 37.4 °F 33.8 °F 26.6 °F 65% 30.18 in 10.0 mi NNE 4.6 mph - N/A   Clear
9:35 AM 37.4 °F 31.4 °F 26.6 °F 65% 30.19 in 10.0 mi NNE 8.1 mph - N/A   Clear
9:55 AM 41.0 °F 36.4 °F 26.6 °F 57% 30.19 in 10.0 mi NE 6.9 mph - N/A   Clear
10:15 AM 41.0 °F 37.1 °F 26.6 °F 57% 30.19 in 10.0 mi NE 5.8 mph - N/A   Clear
10:35 AM 41.0 °F 36.4 °F 24.8 °F 53% 30.19 in 10.0 mi ESE 6.9 mph - N/A   Clear
10:55 AM 41.0 °F 35.8 °F 26.6 °F 57% 30.19 in 10.0 mi ESE 8.1 mph - N/A   Clear
11:15 AM 42.8 °F 40.1 °F 26.6 °F 53% 30.19 in 10.0 mi ESE 4.6 mph - N/A   Clear
11:35 AM 42.8 °F 38.6 °F 23.0 °F 46% 30.20 in 10.0 mi SE 6.9 mph - N/A   Clear
11:55 AM 42.8 °F 38.0 °F 24.8 °F 49% 30.20 in 10.0 mi SE 8.1 mph - N/A   Clear
12:15 PM 42.8 °F 38.6 °F 23.0 °F 46% 30.20 in 10.0 mi SE 6.9 mph - N/A   Clear
12:35 PM 42.8 °F 41.1 °F 23.0 °F 46% 30.20 in 10.0 mi SSE 3.5 mph - N/A   Clear
12:55 PM 42.8 °F 38.0 °F 23.0 °F 46% 30.20 in 10.0 mi SE 8.1 mph - N/A   Clear
1:15 PM 42.8 °F 38.0 °F 23.0 °F 46% 30.20 in 10.0 mi ESE 8.1 mph - N/A   Clear
1:35 PM 42.8 °F 40.1 °F 23.0 °F 46% 30.19 in 10.0 mi East 4.6 mph - N/A   Clear
1:55 PM 44.6 °F - 23.0 °F 43% 30.19 in 10.0 mi Calm Calm - N/A   Clear
2:15 PM 42.8 °F 40.1 °F 21.2 °F 42% 30.19 in 10.0 mi NNW 4.6 mph - N/A   Clear
2:35 PM 42.8 °F 37.5 °F 21.2 °F 42% 30.19 in 10.0 mi NNW 9.2 mph - N/A   Scattered Clouds
2:55 PM 41.0 °F 35.8 °F 19.4 °F 42% 30.19 in 10.0 mi North 8.1 mph - N/A   Scattered Clouds
3:15 PM 42.8 °F 38.6 °F 19.4 °F 39% 30.19 in 10.0 mi North 6.9 mph - N/A   Clear
3:35 PM 42.8 °F 38.0 °F 19.4 °F 39% 30.19 in 10.0 mi North 8.1 mph - N/A   Clear
3:55 PM 42.8 °F 38.6 °F 19.4 °F 39% 30.19 in 10.0 mi North 6.9 mph - N/A   Clear
4:15 PM 42.8 °F 39.3 °F 17.6 °F 36% 30.19 in 10.0 mi North 5.8 mph - N/A   Clear
4:35 PM 42.8 °F 37.5 °F 19.4 °F 39% 30.20 in 10.0 mi North 9.2 mph - N/A   Clear
4:55 PM 42.8 °F 36.6 °F 19.4 °F 39% 30.20 in 10.0 mi NNW 11.5 mph - N/A   Clear
5:15 PM 42.8 °F 38.0 °F 19.4 °F 39% 30.20 in 10.0 mi North 8.1 mph - N/A   Clear
5:35 PM 41.0 °F 35.8 °F 19.4 °F 42% 30.20 in 10.0 mi North 8.1 mph - N/A   Clear
5:55 PM 41.0 °F 34.7 °F 19.4 °F 42% 30.20 in 10.0 mi North 10.4 mph - N/A   Clear
6:15 PM 37.4 °F 28.9 °F 21.2 °F 52% 30.21 in 10.0 mi North 13.8 mph - N/A   Clear
6:35 PM 37.4 °F 29.3 °F 21.2 °F 52% 30.21 in 10.0 mi North 12.7 mph - N/A   Clear
6:55 PM 37.4 °F 29.8 °F 21.2 °F 52% 30.22 in 10.0 mi North 11.5 mph - N/A   Clear
7:15 PM 37.4 °F 29.8 °F 21.2 °F 52% 30.22 in 10.0 mi North 11.5 mph - N/A   Clear
7:35 PM 37.4 °F 29.8 °F 21.2 °F 52% 30.23 in 10.0 mi NNW 11.5 mph - N/A   Clear
7:55 PM 37.4 °F 29.3 °F 21.2 °F 52% 30.23 in 10.0 mi NNW 12.7 mph - N/A   Clear
8:15 PM 37.4 °F 29.3 °F 21.2 °F 52% 30.24 in 10.0 mi North 12.7 mph - N/A   Clear
8:35 PM 37.4 °F 28.9 °F 21.2 °F 52% 30.24 in 10.0 mi North 13.8 mph - N/A   Clear
9:15 PM 35.6 °F 27.1 °F 21.2 °F 56% 30.25 in 10.0 mi NNW 12.7 mph - N/A   Clear
9:35 PM 35.6 °F 27.1 °F 21.2 °F 56% 30.25 in 10.0 mi NNW 12.7 mph - N/A   Clear
9:55 PM 35.6 °F 27.5 °F 21.2 °F 56% 30.26 in 10.0 mi NNW 11.5 mph - N/A   Clear
10:15 PM 35.6 °F 29.2 °F 21.2 °F 56% 30.26 in 10.0 mi NNW 8.1 mph - N/A   Clear
10:35 PM 37.4 °F 31.4 °F 21.2 °F 52% 30.26 in 10.0 mi North 8.1 mph - N/A   Clear
10:55 PM 37.4 °F 32.8 °F 23.0 °F 56% 30.26 in 10.0 mi North 5.8 mph - N/A   Clear
11:15 PM 37.4 °F 34.9 °F 23.0 °F 56% 30.26 in 10.0 mi North 3.5 mph - N/A   Clear
11:35 PM 37.4 °F 34.9 °F 23.0 °F 56% 30.26 in 10.0 mi North 3.5 mph - N/A   Clear